Flight Track Log - Related Links

Times and Time Zones

All times are in EDT time to prevent confusion due to time zone crossing. See the LOF3376 flight status page for this flight to view local times or setup timezone preferences in your user account.

Time Position Orientation Groundspeed Altitude Reporting Facility
EDT Latitude Longitude Course Direction KTS MPH feet Rate Location/Type
Sat 06:53:59 AM 38.7333 -90.3333 356° North 159 183 1,800  Level Gateway (St. Louis) TRACON
Sat 06:54:59 AM 38.7333 -90.2667 90° East 226 260 3,800 1,760 Climbing Gateway (St. Louis) TRACON
Sat 06:55:14 AM 38.7400 -90.2675 354° North 256 295 4,000 2,000 Climbing Kansas City Center
Sat 06:56:00 AM 38.8602 -90.2000 North  Level FlightAware Approximate
Sat 06:56:14 AM 38.8108 -90.2650 North 261 300 6,300  Level Kansas City Center
Sat 06:57:00 AM 38.9449 -90.2000 North  Level FlightAware Approximate
Sat 06:57:14 AM 38.8892 -90.2589 North 273 314 8,800  Level Kansas City Center
Sat 06:58:00 AM 39.0295 -90.2013 356° North  Level FlightAware Approximate
Sat 06:58:15 AM 38.9872 -90.2511 North 291 335 11,400  Level Kansas City Center
Sat 06:59:00 AM 39.1247 -90.2108 356° North  Level FlightAware Approximate
Sat 06:59:15 AM 39.0817 -90.2431 North 332 382 12,500  Level Kansas City Center
Sat 07:00:15 AM 39.1819 -90.2353 North 357 411 13,700 1,200 Climbing Kansas City Center
Sat 07:01:15 AM 39.2889 -90.2264 North 378 435 14,900 1,091 Climbing Kansas City Center
Sat 07:02:16 AM 39.3986 -90.2167 North 392 451 15,900 1,091 Climbing Kansas City Center
Sat 07:03:16 AM 39.5067 -90.1903 11° North 395 455 17,100 1,050 Climbing Kansas City Center
Sat 07:04:16 AM 39.6161 -90.1639 11° North 398 458 18,000 1,000 Climbing Kansas City Center
Sat 07:05:16 AM 39.7239 -90.1269 15° North 400 460 19,100 1,091 Climbing Kansas City Center
Sat 07:06:17 AM 39.8194 -90.0469 33° Northeast 412 474 20,200 942 Climbing Kansas City Center
Sat 07:07:17 AM 39.9200 -89.9703 30° Northeast 418 481 21,000 400 Climbing Kansas City Center
Sat 07:08:17 AM 40.0256 -89.8900 30° Northeast 431 496 21,000  Level Kansas City Center
Sat 07:09:18 AM 40.1300 -89.8069 31° Northeast 438 504 21,000 -298 Level Kansas City Center
Sat 07:10:18 AM 40.2328 -89.7272 31° Northeast 434 499 20,400 -1,000 Descending Kansas City Center
Sat 07:11:18 AM 40.3328 -89.6494 31° Northeast 424 488 19,000 -694 Descending Kansas City Center
Sat 07:12:19 AM 40.4308 -89.5722 31° Northeast 418 481 19,000  Level Kansas City Center
Sat 07:13:25 AM 40.5461 -89.4817 31° Northeast 411 473 19,000 -381 Level Chicago Center
Sat 07:14:25 AM 40.6436 -89.4056 31° Northeast 411 473 18,200 -744 Descending Chicago Center
Sat 07:15:26 AM 40.7369 -89.3319 31° Northeast 394 453 17,500 -942 Descending Chicago Center
Sat 07:16:26 AM 40.8289 -89.2578 31° Northeast 389 448 16,300 -1,240 Descending Chicago Center
Sat 07:17:27 AM 40.9125 -89.1703 38° Northeast 385 443 15,000 -1,230 Descending Chicago Center
Sat 07:18:28 AM 40.9939 -89.0822 39° Northeast 380 437 13,800 -1,140 Descending Chicago Center
Sat 07:19:28 AM 41.0714 -88.9994 39° Northeast 376 433 12,700 -1,140 Descending Chicago Center
Sat 07:20:29 AM 41.1506 -88.9150 39° Northeast 369 425 11,500 -836 Descending Chicago Center
Sat 07:21:30 AM 41.2281 -88.8297 40° Northeast 363 418 11,000 -248 Descending Chicago Center
Sat 07:22:30 AM 41.3031 -88.7486 39° Northeast 351 404 11,000  Level Chicago Center
Sat 07:23:31 AM 41.3908 -88.6525 39° Northeast 342 394 11,000  Level Chicago Center
Sat 07:24:32 AM 41.4647 -88.5711 40° Northeast 344 396 11,000  Level Chicago Center
Sat 07:25:33 AM 41.5389 -88.4903 39° Northeast 343 395 11,000 -99 Level Chicago Center
Sat 07:26:33 AM 41.6133 -88.4094 39° Northeast 344 396 10,800 -496 Descending Chicago Center
Sat 07:27:34 AM 41.6892 -88.3244 40° Northeast 351 404 10,000 -390 Descending Chicago Center
Sat 07:28:36 AM 41.7481 -88.2281 51° Northeast 333 383 10,000 -689 Level Chicago Center
Sat 07:29:36 AM 41.7953 -88.1472 52° Northeast 282 325 8,600 -1,488 Descending Chicago Center
Sat 07:30:37 AM 41.8511 -88.0933 36° Northeast 274 315 7,000 -787 Descending Chicago Center
Sat 07:31:38 AM 41.9222 -88.0975 358° North 259 298 7,000 -197 Level Chicago Center
Sat 07:32:39 AM 41.9883 -88.1086 353° North 246 283 6,600 -1,041 Descending Chicago Center
Sat 07:33:39 AM 42.0500 -88.1333 343° North 248 285 4,900 -1,550 Descending Chicago TRACON
Sat 07:34:39 AM 42.1000 -88.0833 37° Northeast 244 281 3,500 -1,400 Descending Chicago TRACON

Login

Don't have an account? Register now (free) for customized features, flight alerts, and more!